Portada
METAR-TAF:

METAR-TAF

Aeroports :

Vientiane, Laos

latitud: 17-57N, longitud: 102-34E, altitud: 171 m

Observació

L'informe es va fer fa 6 hores i 36 minuts, a les 14:00 UTC
Vent 2 kt del Nord-Est
Temperatura 26°C
Humitat 100%
Pressió 1009 hPa
Visibilitat: 4000 m
Escasses núvols a una alçada de 4000 ft
boirina

METAR: VLVT 011400Z 04002KT 4000 BR FEW040 26/26 Q1009 NOSIG

Hora: 03:36 (20:36 UTC)

Pronòstic

L'informe es va fer fa 3 hores i 36 minuts, a les 17:00 UTC
Pronòstic vàlid del 01 a les 18 UTC al 02 a les 18 UTC
Vent 4 kt del Sud-Oest
Visibilitat: 4000 m
Escasses núvols a una alçada de 4000 ft
Núvols disperses a una alçada de 10000 ft
boirina

TAF: VLVT 011700Z 0118/0218 22004KT 4000 BR FEW040 SCT100

Observacions i pronòstics meteorològics de més de 4000 aeroports (METAR i TAF).

Les estacions disponibles són els punts grocs i vermells al mapa.

Posi el ratolí al punt desitjat per veure el nom de l'estació.

Feu clic per veure les observacions i els pronòstics meteorològics.

Per canviar el mapa: feu clic els botons verds amb una creu de color negre per apropar; al botó verd amb un guió per allunyar la imatge; o en les fletxes verdes per a mapes adjacents.


METAR-TAF: